Time;durP1;ratioP1;P1;durP2;ratioP2;P2;SDS_P1;SDS_P2;PMS_P1;PMS_P2;Temp;Humidity;BMP_temperature;BMP_pressure;BME280_temperature;BME280_humidity;BME280_pressure;Samples;Min_cycle;Max_cycle;Signal;HPM_P1;HPM_P2
2024/02/19 00:01:53;;;;;;;3.80;2.40;;;8.10;99.90;;;;;;5177686;27;20479;-77
2024/02/19 00:04:23;;;;;;;2.80;2.37;;;8.00;99.90;;;;;;5177024;27;20467;-77
2024/02/19 00:06:51;;;;;;;3.07;2.60;;;8.00;99.90;;;;;;5177626;27;20459;-77
2024/02/19 00:09:20;;;;;;;3.77;2.30;;;8.00;99.90;;;;;;5158923;27;20444;-76
2024/02/19 00:11:48;;;;;;;3.20;2.60;;;8.00;99.90;;;;;;5158873;27;20444;-77
2024/02/19 00:14:16;;;;;;;2.40;2.10;;;7.90;99.90;;;;;;5158719;27;20468;-74
2024/02/19 00:16:46;;;;;;;4.40;2.30;;;7.90;99.90;;;;;;5158172;27;20492;-76
2024/02/19 00:19:15;;;;;;;3.57;1.90;;;7.90;99.90;;;;;;5178283;27;20421;-77
2024/02/19 00:21:44;;;;;;;3.40;2.27;;;7.90;99.90;;;;;;5177780;27;20773;-75
2024/02/19 00:24:13;;;;;;;3.70;2.30;;;7.80;99.90;;;;;;5158124;27;20948;-76
2024/02/19 00:26:41;;;;;;;3.70;2.33;;;7.80;99.90;;;;;;5116701;27;1156141;-76
2024/02/19 00:29:09;;;;;;;3.13;1.93;;;7.80;99.90;;;;;;5177864;27;20833;-76
2024/02/19 00:31:37;;;;;;;3.03;2.30;;;7.80;99.90;;;;;;5159116;27;20444;-76
2024/02/19 00:34:06;;;;;;;3.03;2.00;;;7.80;99.90;;;;;;5177749;27;20532;-77
2024/02/19 00:36:35;;;;;;;4.90;2.07;;;7.80;99.90;;;;;;5159075;27;20477;-76
2024/02/19 00:39:05;;;;;;;4.83;2.43;;;7.80;99.90;;;;;;5178196;27;20438;-76
2024/02/19 00:41:33;;;;;;;3.37;2.43;;;7.80;99.90;;;;;;5177536;27;20436;-77
2024/02/19 00:44:01;;;;;;;4.43;2.10;;;7.80;99.90;;;;;;5158851;27;20464;-76
2024/02/19 00:46:29;;;;;;;5.80;3.17;;;7.70;99.90;;;;;;5158600;27;20478;-77
2024/02/19 00:48:57;;;;;;;9.17;4.20;;;7.80;99.90;;;;;;5158893;27;20444;-76
2024/02/19 00:51:26;;;;;;;8.47;4.53;;;7.80;99.90;;;;;;5159329;27;20988;-75
2024/02/19 00:53:54;;;;;;;13.30;5.70;;;7.70;99.90;;;;;;5158594;27;20791;-76
2024/02/19 00:56:24;;;;;;;9.67;4.97;;;7.70;99.90;;;;;;5177162;27;20468;-75
2024/02/19 00:58:52;;;;;;;10.80;4.80;;;7.70;99.90;;;;;;5157687;27;20441;-75
2024/02/19 01:01:20;;;;;;;6.97;3.63;;;7.70;99.90;;;;;;5158449;27;20451;-76
2024/02/19 01:03:48;;;;;;;11.20;4.20;;;7.70;99.90;;;;;;5177077;27;20808;-76
2024/02/19 01:06:17;;;;;;;11.13;3.77;;;7.70;99.90;;;;;;5176916;27;20482;-76
2024/02/19 01:08:45;;;;;;;7.90;3.70;;;7.70;99.90;;;;;;5176942;27;20506;-75
2024/02/19 01:11:13;;;;;;;9.27;3.90;;;7.70;99.90;;;;;;5158613;27;21003;-75
2024/02/19 01:13:43;;;;;;;9.70;3.70;;;7.70;99.90;;;;;;5177137;27;20913;-76
2024/02/19 01:16:11;;;;;;;12.27;4.10;;;7.70;99.90;;;;;;5176798;27;20455;-77
2024/02/19 01:18:39;;;;;;;12.27;3.50;;;7.70;99.90;;;;;;5176960;27;20487;-76
2024/02/19 01:21:08;;;;;;;6.67;2.90;;;7.70;99.90;;;;;;5176772;27;20432;-76
2024/02/19 01:23:36;;;;;;;8.40;3.20;;;7.70;99.90;;;;;;5158204;27;20803;-76
2024/02/19 01:26:04;;;;;;;10.53;2.80;;;7.70;99.90;;;;;;5157743;27;20483;-76
2024/02/19 01:28:32;;;;;;;7.50;2.77;;;7.70;99.90;;;;;;5176720;27;20932;-76
2024/02/19 01:31:02;;;;;;;6.80;3.20;;;7.70;99.90;;;;;;5157950;27;20496;-75
2024/02/19 01:33:30;;;;;;;7.83;2.57;;;7.70;99.90;;;;;;5176778;27;20463;-76
2024/02/19 01:35:59;;;;;;;8.83;2.67;;;7.70;99.90;;;;;;5157988;27;21088;-76
2024/02/19 01:38:27;;;;;;;7.53;2.33;;;7.70;99.90;;;;;;5157735;27;20430;-76
2024/02/19 01:40:55;;;;;;;10.40;2.53;;;7.70;99.90;;;;;;5176618;27;20441;-75
2024/02/19 01:43:23;;;;;;;6.67;2.30;;;7.70;99.90;;;;;;5176516;27;20527;-75
2024/02/19 01:45:52;;;;;;;6.63;2.50;;;7.70;99.90;;;;;;5176164;27;20562;-75
2024/02/19 01:48:23;;;;;;;7.67;2.10;;;7.70;99.90;;;;;;5176248;27;20489;-76
2024/02/19 01:50:51;;;;;;;5.80;1.80;;;7.70;99.90;;;;;;5176821;27;20939;-76
2024/02/19 01:53:19;;;;;;;7.20;1.90;;;7.60;99.90;;;;;;5176670;27;20424;-76
2024/02/19 01:55:49;;;;;;;7.27;1.87;;;7.60;99.90;;;;;;5158061;27;20461;-76
2024/02/19 01:58:17;;;;;;;4.10;1.33;;;7.60;99.90;;;;;;5176038;27;20448;-75
2024/02/19 02:00:49;;;;;;;4.93;1.50;;;7.60;99.90;;;;;;5157467;27;20424;-74
2024/02/19 02:03:20;;;;;;;4.63;1.60;;;7.60;99.90;;;;;;5176603;27;20457;-75
2024/02/19 02:05:50;;;;;;;6.53;1.93;;;7.50;99.90;;;;;;5176158;27;20550;-75
2024/02/19 02:08:18;;;;;;;5.40;1.57;;;7.50;99.90;;;;;;5157333;27;20436;-76
2024/02/19 02:10:46;;;;;;;9.10;2.53;;;7.50;99.90;;;;;;5175932;27;20439;-76
2024/02/19 02:13:16;;;;;;;6.70;2.17;;;7.50;99.90;;;;;;5157219;27;20450;-75
2024/02/19 02:15:44;;;;;;;9.73;2.33;;;7.50;99.90;;;;;;5157354;27;20482;-75
2024/02/19 02:18:14;;;;;;;5.63;1.60;;;7.50;99.90;;;;;;5176359;27;20430;-75
2024/02/19 02:20:44;;;;;;;5.40;2.00;;;7.50;99.90;;;;;;5157258;27;20445;-76
2024/02/19 02:23:16;;;;;;;4.10;1.30;;;7.50;99.90;;;;;;5157394;27;20455;-75
2024/02/19 02:25:44;;;;;;;8.07;1.90;;;7.50;99.90;;;;;;5156964;27;20479;-75
2024/02/19 02:28:13;;;;;;;5.13;1.77;;;7.40;99.90;;;;;;5156927;27;20503;-75
2024/02/19 02:30:42;;;;;;;6.63;2.10;;;7.40;99.90;;;;;;5175708;27;20463;-76
2024/02/19 02:33:11;;;;;;;7.10;2.10;;;7.40;99.90;;;;;;5175918;27;20816;-75
2024/02/19 02:35:39;;;;;;;5.20;1.70;;;7.40;99.90;;;;;;5156924;27;20554;-75
2024/02/19 02:38:08;;;;;;;4.87;1.40;;;7.40;99.90;;;;;;5156950;27;20947;-75
2024/02/19 02:40:37;;;;;;;4.30;1.50;;;7.40;99.90;;;;;;5156891;27;20811;-75
2024/02/19 02:43:05;;;;;;;7.20;1.83;;;7.40;99.90;;;;;;5156983;27;20475;-76
2024/02/19 02:45:35;;;;;;;3.93;1.57;;;7.40;99.90;;;;;;5175692;27;21057;-76
2024/02/19 02:48:03;;;;;;;4.17;1.20;;;7.40;99.90;;;;;;5175479;27;20499;-76
2024/02/19 02:50:31;;;;;;;4.80;2.10;;;7.40;99.90;;;;;;5156782;27;20443;-76
2024/02/19 02:52:59;;;;;;;5.10;1.50;;;7.40;99.90;;;;;;5175748;27;20473;-75
2024/02/19 02:55:28;;;;;;;8.23;2.00;;;7.40;99.90;;;;;;5175596;27;20511;-76
2024/02/19 02:57:56;;;;;;;6.13;1.77;;;7.40;99.90;;;;;;5156794;27;20437;-76
2024/02/19 03:00:26;;;;;;;8.93;2.10;;;7.40;99.90;;;;;;5175680;27;20432;-76
2024/02/19 03:02:55;;;;;;;5.73;1.70;;;7.40;99.90;;;;;;5175428;27;20490;-76
2024/02/19 03:05:23;;;;;;;7.60;1.87;;;7.40;99.90;;;;;;5156581;27;20534;-75
2024/02/19 03:07:51;;;;;;;3.83;1.50;;;7.40;99.90;;;;;;5175247;27;20491;-76
2024/02/19 03:10:20;;;;;;;5.00;1.67;;;7.40;99.90;;;;;;5175387;27;20831;-76
2024/02/19 03:12:48;;;;;;;4.50;1.37;;;7.40;99.90;;;;;;5156607;27;20445;-75
2024/02/19 03:15:17;;;;;;;4.40;1.70;;;7.40;99.90;;;;;;5156451;27;20494;-77
2024/02/19 03:17:45;;;;;;;5.13;1.53;;;7.40;99.90;;;;;;5175736;27;20435;-76
2024/02/19 03:20:18;;;;;;;3.83;1.57;;;7.40;99.90;;;;;;5156599;27;20432;-76
2024/02/19 03:22:46;;;;;;;3.30;1.27;;;7.40;99.90;;;;;;5179094;27;20447;-76
2024/02/19 03:25:15;;;;;;;4.30;1.53;;;7.40;99.90;;;;;;5160284;27;20940;-76
2024/02/19 03:27:43;;;;;;;2.97;1.50;;;7.40;99.90;;;;;;5160238;27;20479;-75
2024/02/19 03:30:13;;;;;;;3.20;1.17;;;7.40;99.90;;;;;;5160364;27;21011;-76
2024/02/19 03:32:41;;;;;;;3.60;1.40;;;7.40;99.90;;;;;;5178968;27;20458;-76
2024/02/19 03:35:10;;;;;;;4.40;1.63;;;7.40;99.90;;;;;;5160232;27;20959;-76
2024/02/19 03:37:39;;;;;;;2.97;1.27;;;7.40;99.90;;;;;;5178889;27;20483;-76
2024/02/19 03:40:10;;;;;;;4.33;1.70;;;7.40;99.90;;;;;;5160082;27;20443;-76
2024/02/19 03:42:38;;;;;;;2.57;1.10;;;7.40;99.90;;;;;;5159944;27;20434;-76
2024/02/19 03:45:07;;;;;;;3.13;1.27;;;7.40;99.90;;;;;;5160058;27;20984;-76
2024/02/19 03:47:36;;;;;;;1.80;1.03;;;7.40;99.90;;;;;;5178525;27;20872;-77
2024/02/19 03:50:05;;;;;;;3.53;1.20;;;7.40;99.90;;;;;;5178644;27;20460;-76
2024/02/19 03:52:33;;;;;;;2.50;1.30;;;7.50;99.90;;;;;;5159784;27;20478;-76
2024/02/19 03:55:03;;;;;;;5.23;2.10;;;7.50;99.90;;;;;;5178523;27;20431;-76
2024/02/19 03:57:32;;;;;;;1.93;1.10;;;7.50;99.90;;;;;;5159641;27;20458;-76
2024/02/19 04:00:04;;;;;;;1.93;1.30;;;7.50;99.90;;;;;;5159776;27;20800;-76
2024/02/19 04:02:33;;;;;;;1.90;1.20;;;7.50;99.90;;;;;;5178646;27;20417;-75
2024/02/19 04:05:01;;;;;;;4.07;1.37;;;7.50;99.90;;;;;;5159639;27;20470;-76
2024/02/19 04:07:30;;;;;;;1.87;1.60;;;7.50;99.90;;;;;;5159469;27;20989;-76
2024/02/19 04:09:59;;;;;;;3.03;1.23;;;7.50;99.90;;;;;;5178329;27;20442;-76
2024/02/19 04:12:28;;;;;;;5.53;1.47;;;7.50;99.90;;;;;;5159458;27;20900;-76
2024/02/19 04:14:56;;;;;;;3.83;1.37;;;7.50;99.90;;;;;;5178188;27;20484;-76
2024/02/19 04:17:26;;;;;;;3.53;1.80;;;7.50;99.90;;;;;;5178055;27;20788;-76
2024/02/19 04:19:57;;;;;;;1.83;1.57;;;7.50;99.90;;;;;;5178630;27;20819;-76
2024/02/19 04:22:26;;;;;;;3.43;1.77;;;7.50;99.90;;;;;;5159613;27;20443;-76
2024/02/19 04:24:54;;;;;;;2.40;1.80;;;7.50;99.90;;;;;;5177938;27;20923;-76
2024/02/19 04:27:22;;;;;;;3.43;2.17;;;7.50;99.90;;;;;;5177631;27;20565;-76
2024/02/19 04:29:52;;;;;;;2.73;1.90;;;7.60;99.90;;;;;;5178781;27;20428;-75
2024/02/19 04:32:20;;;;;;;3.17;1.97;;;7.60;99.90;;;;;;5177135;27;20479;-75
2024/02/19 04:34:48;;;;;;;2.33;1.40;;;7.60;99.90;;;;;;5177718;27;20484;-75
2024/02/19 04:37:17;;;;;;;2.43;1.70;;;7.60;99.90;;;;;;5177601;27;20527;-76
2024/02/19 04:39:45;;;;;;;3.03;1.40;;;7.60;99.90;;;;;;5177606;27;20948;-76
2024/02/19 04:42:13;;;;;;;1.73;1.00;;;7.60;99.90;;;;;;5177560;27;20435;-76
2024/02/19 04:44:41;;;;;;;2.47;1.70;;;7.60;99.90;;;;;;5158842;27;20438;-76
2024/02/19 04:47:11;;;;;;;3.43;1.60;;;7.60;99.90;;;;;;5158677;27;20816;-76
2024/02/19 04:49:39;;;;;;;2.00;1.30;;;7.60;99.90;;;;;;5177677;27;20522;-75
2024/02/19 04:52:08;;;;;;;3.93;1.73;;;7.60;99.90;;;;;;5177524;27;20447;-76
2024/02/19 04:54:36;;;;;;;1.87;1.40;;;7.60;99.90;;;;;;5158687;27;20447;-76
2024/02/19 04:57:05;;;;;;;4.10;1.93;;;7.60;99.90;;;;;;5158745;27;20820;-76
2024/02/19 04:59:33;;;;;;;4.20;2.10;;;7.70;99.90;;;;;;5177242;27;20431;-76
2024/02/19 05:02:02;;;;;;;3.33;1.90;;;7.70;99.90;;;;;;5177234;27;20528;-76
2024/02/19 05:04:31;;;;;;;3.30;1.67;;;7.70;99.90;;;;;;5177110;27;20432;-76
2024/02/19 05:07:00;;;;;;;4.37;2.10;;;7.70;99.90;;;;;;5177271;27;20986;-75
2024/02/19 05:09:28;;;;;;;4.20;2.27;;;7.70;99.90;;;;;;5158275;27;20439;-75
2024/02/19 05:11:57;;;;;;;3.53;2.20;;;7.70;99.90;;;;;;5177501;27;20431;-76
2024/02/19 05:14:25;;;;;;;5.93;2.80;;;7.70;99.90;;;;;;5176924;27;20433;-76
2024/02/19 05:16:54;;;;;;;3.77;2.20;;;7.80;99.90;;;;;;5176932;27;20485;-75
2024/02/19 05:19:23;;;;;;;6.77;2.63;;;7.80;99.90;;;;;;5176834;27;20430;-77
2024/02/19 05:21:53;;;;;;;4.63;2.50;;;7.80;99.90;;;;;;5176837;27;20444;-75
2024/02/19 05:24:22;;;;;;;4.83;3.10;;;7.80;99.90;;;;;;5176992;27;20411;-77
2024/02/19 05:26:50;;;;;;;3.10;2.20;;;7.80;99.90;;;;;;5157687;27;20472;-76
2024/02/19 05:29:19;;;;;;;4.53;2.27;;;7.80;99.90;;;;;;5176699;27;20852;-74
2024/02/19 05:31:47;;;;;;;4.43;2.63;;;7.80;99.90;;;;;;5157972;27;20452;-76
2024/02/19 05:34:15;;;;;;;6.33;2.93;;;7.80;99.90;;;;;;5157996;27;20492;-75
2024/02/19 05:36:44;;;;;;;4.83;2.87;;;7.80;99.90;;;;;;5158571;27;20464;-74
2024/02/19 05:39:14;;;;;;;4.50;3.20;;;7.80;99.90;;;;;;5176502;27;20936;-75
2024/02/19 05:41:42;;;;;;;5.60;3.23;;;7.90;99.90;;;;;;5176754;27;20472;-76
2024/02/19 05:44:11;;;;;;;3.57;2.70;;;7.90;99.90;;;;;;5157726;27;20467;-76
2024/02/19 05:46:39;;;;;;;5.30;2.80;;;7.90;99.90;;;;;;5176267;27;20546;-76
2024/02/19 05:49:07;;;;;;;3.37;2.77;;;7.90;99.90;;;;;;5157518;27;20499;-75
2024/02/19 05:51:36;;;;;;;4.00;3.00;;;7.90;99.90;;;;;;5157557;27;20814;-75
2024/02/19 05:54:04;;;;;;;3.83;3.00;;;7.90;99.90;;;;;;5176193;27;20439;-75
2024/02/19 05:56:34;;;;;;;3.80;3.30;;;7.90;99.90;;;;;;5176264;27;20445;-75
2024/02/19 05:59:02;;;;;;;4.40;3.13;;;7.90;99.90;;;;;;5157781;27;20486;-74
2024/02/19 06:01:31;;;;;;;6.40;3.43;;;7.90;99.90;;;;;;5157462;27;20846;-76
2024/02/19 06:03:59;;;;;;;5.87;3.37;;;7.90;99.90;;;;;;5176044;27;20435;-76
2024/02/19 06:06:27;;;;;;;4.77;3.10;;;7.90;99.90;;;;;;5176274;27;20542;-76
2024/02/19 06:08:55;;;;;;;6.13;3.70;;;8.00;99.90;;;;;;5175938;27;20962;-75
2024/02/19 06:11:24;;;;;;;5.13;3.13;;;8.00;99.90;;;;;;5176176;27;20424;-76
2024/02/19 06:13:55;;;;;;;6.40;3.80;;;8.00;99.90;;;;;;5176302;27;20482;-76
2024/02/19 06:16:23;;;;;;;10.17;4.63;;;8.00;99.90;;;;;;5157208;27;20462;-76
2024/02/19 06:18:52;;;;;;;5.17;4.07;;;8.00;99.90;;;;;;5176018;27;20437;-76
2024/02/19 06:21:21;;;;;;;6.03;4.27;;;8.00;99.90;;;;;;5175887;27;20433;-76
2024/02/19 06:23:49;;;;;;;7.90;5.00;;;8.00;99.90;;;;;;5157160;27;20879;-76
2024/02/19 06:26:17;;;;;;;7.43;5.00;;;8.00;99.90;;;;;;5157437;27;20464;-76
2024/02/19 06:28:46;;;;;;;8.45;4.75;;;8.00;99.90;;;;;;5156420;27;20439;-75
2024/02/19 06:31:15;;;;;;;7.70;4.30;;;8.10;99.90;;;;;;5175837;27;20267;-76
2024/02/19 06:33:44;;;;;;;11.93;4.40;;;8.10;99.90;;;;;;5176163;27;20431;-76
2024/02/19 06:36:12;;;;;;;10.10;5.90;;;8.10;99.90;;;;;;5176295;27;20440;-76
2024/02/19 06:38:41;;;;;;;13.10;5.10;;;8.10;99.90;;;;;;5176003;27;20475;-76
2024/02/19 06:41:09;;;;;;;12.13;6.23;;;8.10;99.90;;;;;;5157172;27;20436;-76
2024/02/19 06:43:37;;;;;;;11.07;7.50;;;8.20;99.90;;;;;;5175915;27;20436;-76
2024/02/19 06:46:05;;;;;;;13.27;7.60;;;8.20;99.90;;;;;;5157013;27;21006;-75
2024/02/19 06:48:35;;;;;;;12.20;7.67;;;8.20;99.90;;;;;;5157159;27;20483;-75
2024/02/19 06:51:04;;;;;;;9.50;8.50;;;8.20;99.90;;;;;;5157063;27;20439;-75
2024/02/19 06:53:33;;;;;;;11.70;7.90;;;8.20;99.90;;;;;;5157378;27;20803;-75
2024/02/19 06:56:01;;;;;;;9.73;7.30;;;8.20;99.90;;;;;;5177473;27;20458;-77
2024/02/19 06:58:29;;;;;;;9.10;7.07;;;8.20;99.90;;;;;;5180037;27;20460;-77
2024/02/19 07:00:57;;;;;;;9.57;7.20;;;8.20;99.90;;;;;;5180213;27;20431;-76
2024/02/19 07:03:26;;;;;;;11.70;8.23;;;8.20;99.90;;;;;;5179511;27;20918;-77
2024/02/19 07:05:56;;;;;;;12.03;6.90;;;8.20;99.90;;;;;;5180386;27;20459;-77
2024/02/19 07:08:25;;;;;;;9.13;6.47;;;8.20;99.90;;;;;;5161841;27;20463;-77
2024/02/19 07:10:53;;;;;;;7.90;6.30;;;8.20;99.90;;;;;;5180538;27;20432;-77
2024/02/19 07:13:21;;;;;;;8.40;6.50;;;8.20;99.90;;;;;;5180112;27;20495;-77
2024/02/19 07:15:49;;;;;;;8.60;6.30;;;8.20;99.90;;;;;;5161547;27;20495;-77
2024/02/19 07:18:18;;;;;;;13.60;7.07;;;8.20;99.90;;;;;;5180438;27;20445;-77
2024/02/19 07:20:46;;;;;;;8.23;6.50;;;8.20;99.90;;;;;;5161974;27;21014;-77
2024/02/19 07:23:16;;;;;;;11.37;5.60;;;8.20;99.90;;;;;;5180402;27;20500;-77
2024/02/19 07:25:44;;;;;;;11.03;5.83;;;8.20;99.90;;;;;;5180034;27;20452;-75
2024/02/19 07:28:12;;;;;;;10.57;5.20;;;8.20;99.90;;;;;;5179416;27;20520;-76
2024/02/19 07:30:41;;;;;;;6.97;4.93;;;8.20;99.90;;;;;;5179703;27;20425;-77
2024/02/19 07:33:09;;;;;;;9.17;4.70;;;8.20;99.90;;;;;;5161673;27;20466;-77
2024/02/19 07:35:38;;;;;;;9.77;5.60;;;8.20;99.90;;;;;;5161689;27;20964;-77
2024/02/19 07:38:06;;;;;;;7.40;4.70;;;8.20;99.90;;;;;;5161989;27;20451;-77
2024/02/19 07:40:35;;;;;;;9.10;4.77;;;8.20;99.90;;;;;;5161774;27;20944;-77
2024/02/19 07:43:04;;;;;;;9.90;4.70;;;8.30;99.90;;;;;;5161663;27;20512;-78
2024/02/19 07:45:33;;;;;;;6.37;4.23;;;8.30;99.90;;;;;;5161615;27;20612;-77
2024/02/19 07:48:02;;;;;;;7.47;4.40;;;8.30;99.90;;;;;;5161826;27;20486;-77
2024/02/19 07:50:31;;;;;;;8.17;4.00;;;8.30;99.90;;;;;;5160864;27;20501;-77
2024/02/19 07:52:59;;;;;;;8.60;4.50;;;8.30;99.90;;;;;;5178672;27;20475;-78
2024/02/19 07:55:28;;;;;;;9.53;4.50;;;8.30;99.90;;;;;;5178548;27;20470;-77
2024/02/19 07:57:57;;;;;;;8.07;4.50;;;8.30;99.90;;;;;;5159823;27;20444;-77
2024/02/19 08:00:25;;;;;;;9.37;4.67;;;8.30;99.90;;;;;;5178713;27;20908;-77
2024/02/19 08:02:54;;;;;;;9.93;4.80;;;8.30;99.90;;;;;;5160953;27;20504;-77
2024/02/19 08:05:22;;;;;;;6.70;3.90;;;8.40;99.90;;;;;;5179043;27;21023;-77
2024/02/19 08:07:51;;;;;;;8.70;4.50;;;8.40;99.90;;;;;;5160307;27;20844;-77
2024/02/19 08:10:19;;;;;;;8.30;4.30;;;8.40;99.90;;;;;;5179620;27;20460;-78
2024/02/19 08:12:47;;;;;;;8.97;3.47;;;8.40;99.90;;;;;;5160795;27;20806;-77
2024/02/19 08:15:17;;;;;;;11.47;4.80;;;8.40;99.90;;;;;;5178947;27;20465;-77
2024/02/19 08:17:46;;;;;;;10.50;4.17;;;8.40;99.90;;;;;;5178943;27;20428;-77
2024/02/19 08:20:14;;;;;;;10.40;5.10;;;8.40;99.90;;;;;;5178635;27;20796;-77
2024/02/19 08:22:43;;;;;;;9.80;3.70;;;8.50;99.90;;;;;;5178301;27;20431;-77
2024/02/19 08:25:14;;;;;;;8.60;4.17;;;8.50;99.90;;;;;;5159245;27;20435;-77
2024/02/19 08:27:42;;;;;;;13.87;4.43;;;8.50;99.90;;;;;;5177856;27;20555;-77
2024/02/19 08:30:11;;;;;;;10.27;4.83;;;8.50;99.90;;;;;;5159340;27;20471;-77
2024/02/19 08:32:41;;;;;;;10.90;4.90;;;8.50;99.90;;;;;;5159163;27;20497;-76
2024/02/19 08:35:10;;;;;;;8.60;4.40;;;8.60;99.90;;;;;;5178887;27;20412;-77
2024/02/19 08:37:38;;;;;;;12.20;4.90;;;8.70;99.90;;;;;;5159220;27;20501;-77
2024/02/19 08:40:07;;;;;;;15.33;3.97;;;8.80;99.90;;;;;;5177584;27;20441;-77
2024/02/19 08:42:36;;;;;;;11.30;4.23;;;8.80;99.90;;;;;;5178427;27;20436;-77
2024/02/19 08:45:06;;;;;;;11.20;3.60;;;8.80;99.90;;;;;;5160509;27;20448;-77
2024/02/19 08:47:34;;;;;;;12.17;3.80;;;8.80;99.90;;;;;;5159228;27;20492;-77
2024/02/19 08:50:05;;;;;;;10.73;3.60;;;8.80;99.90;;;;;;5159515;27;20548;-77
2024/02/19 08:52:33;;;;;;;13.63;4.40;;;8.90;99.90;;;;;;5159746;27;20444;-77
2024/02/19 08:55:01;;;;;;;11.07;3.80;;;8.90;99.90;;;;;;5159533;27;20444;-77
2024/02/19 08:57:30;;;;;;;16.13;4.70;;;8.90;99.90;;;;;;5177595;27;20546;-75
2024/02/19 08:59:58;;;;;;;15.67;5.13;;;8.90;99.90;;;;;;5177583;27;20463;-76
2024/02/19 09:02:26;;;;;;;16.63;4.10;;;9.00;99.90;;;;;;5159230;27;20493;-77
2024/02/19 09:04:54;;;;;;;15.77;4.70;;;9.00;99.90;;;;;;5159461;27;20539;-76
2024/02/19 09:07:24;;;;;;;12.70;3.87;;;9.00;99.90;;;;;;5158465;27;20460;-75
2024/02/19 09:09:53;;;;;;;16.10;5.47;;;9.00;99.90;;;;;;5158909;27;20976;-75
2024/02/19 09:12:23;;;;;;;11.93;5.37;;;9.10;99.90;;;;;;5158306;27;20444;-75
2024/02/19 09:14:52;;;;;;;14.20;5.80;;;9.10;99.90;;;;;;5158416;27;20447;-75
2024/02/19 09:17:20;;;;;;;19.30;5.70;;;9.10;99.90;;;;;;5158150;27;20560;-76
2024/02/19 09:19:48;;;;;;;12.73;4.70;;;9.10;99.90;;;;;;5158399;27;20466;-77
2024/02/19 09:22:16;;;;;;;18.10;6.50;;;9.20;99.90;;;;;;5159299;27;20437;-77
2024/02/19 09:24:47;;;;;;;12.63;5.80;;;9.20;99.90;;;;;;5159422;27;20451;-77
2024/02/19 09:27:16;;;;;;;12.40;4.93;;;9.30;99.90;;;;;;5158484;27;20497;-76
2024/02/19 09:29:45;;;;;;;15.37;6.47;;;9.30;99.90;;;;;;5158065;27;20464;-77
2024/02/19 09:32:13;;;;;;;15.80;5.70;;;9.30;99.90;;;;;;5158761;27;20441;-77
2024/02/19 09:34:42;;;;;;;11.47;5.43;;;9.40;99.90;;;;;;5158160;27;20444;-76
2024/02/19 09:37:11;;;;;;;14.50;4.87;;;9.40;99.90;;;;;;5177039;27;20452;-76
2024/02/19 09:39:40;;;;;;;10.43;4.70;;;9.40;99.90;;;;;;5157840;27;20953;-76
2024/02/19 09:42:10;;;;;;;15.87;5.60;;;9.40;99.90;;;;;;5176469;27;20493;-76
2024/02/19 09:44:38;;;;;;;11.23;5.33;;;9.50;99.90;;;;;;5177077;27;20507;-76
2024/02/19 09:47:08;;;;;;;14.77;5.60;;;9.50;99.90;;;;;;5176354;27;20452;-76
2024/02/19 09:49:37;;;;;;;14.43;4.63;;;9.60;99.90;;;;;;5176204;27;20465;-76
2024/02/19 09:52:09;;;;;;;15.87;5.47;;;9.60;99.90;;;;;;5158795;27;20448;-76
2024/02/19 09:54:38;;;;;;;12.33;5.90;;;9.70;99.90;;;;;;5157884;27;20433;-76
2024/02/19 09:57:10;;;;;;;9.13;4.17;;;9.70;99.90;;;;;;5158192;27;20468;-76
2024/02/19 09:59:40;;;;;;;15.00;5.27;;;9.70;99.90;;;;;;5176218;27;20414;-77
2024/02/19 10:02:09;;;;;;;13.63;4.90;;;9.70;99.90;;;;;;5157694;27;20440;-77
2024/02/19 10:04:37;;;;;;;10.60;4.10;;;9.80;99.90;;;;;;5157922;27;20515;-76
2024/02/19 10:07:06;;;;;;;10.47;4.37;;;9.80;99.90;;;;;;5176198;27;20878;-77
2024/02/19 10:09:36;;;;;;;11.53;4.60;;;9.80;99.90;;;;;;5157350;27;20451;-76
2024/02/19 10:12:05;;;;;;;9.80;4.00;;;9.80;99.90;;;;;;5177024;27;20489;-77
2024/02/19 10:14:35;;;;;;;12.00;4.37;;;9.80;99.90;;;;;;5178206;27;20436;-78
2024/02/19 10:17:05;;;;;;;14.37;4.93;;;9.80;99.90;;;;;;5158734;27;21067;-77
2024/02/19 10:19:33;;;;;;;12.33;4.20;;;9.80;99.90;;;;;;5178528;27;20432;-77
2024/02/19 10:22:02;;;;;;;12.70;4.90;;;9.80;99.90;;;;;;5159409;27;20440;-78
2024/02/19 10:24:30;;;;;;;14.30;5.27;;;9.80;99.90;;;;;;5159241;27;20531;-77
2024/02/19 10:26:58;;;;;;;11.80;4.97;;;9.90;99.90;;;;;;5178300;27;20537;-78
2024/02/19 10:29:27;;;;;;;9.77;4.70;;;9.90;99.90;;;;;;5159492;27;20500;-77
2024/02/19 10:31:57;;;;;;;11.67;5.07;;;9.90;99.90;;;;;;5182706;27;20460;-77
2024/02/19 10:34:25;;;;;;;11.10;5.50;;;9.90;99.90;;;;;;5163256;27;20432;-77
2024/02/19 10:36:53;;;;;;;11.00;5.50;;;10.00;99.90;;;;;;5161311;27;20461;-77
2024/02/19 10:39:22;;;;;;;12.23;5.50;;;10.00;99.90;;;;;;5180219;27;20425;-77
2024/02/19 10:41:50;;;;;;;13.50;5.67;;;10.00;99.90;;;;;;5161803;27;20953;-77
2024/02/19 10:44:18;;;;;;;10.93;5.53;;;10.10;99.90;;;;;;5180109;27;20507;-77
2024/02/19 10:46:46;;;;;;;11.40;5.47;;;10.10;99.90;;;;;;5179991;27;20559;-76
2024/02/19 10:49:19;;;;;;;12.50;5.83;;;10.20;99.90;;;;;;5180095;27;20453;-76
2024/02/19 10:51:48;;;;;;;9.90;5.87;;;10.20;99.90;;;;;;5161638;27;20457;-77
2024/02/19 10:54:18;;;;;;;13.30;5.50;;;10.30;99.90;;;;;;5161201;27;20444;-76
2024/02/19 10:56:47;;;;;;;10.03;5.83;;;10.30;99.90;;;;;;5161227;27;20464;-77
2024/02/19 10:59:15;;;;;;;11.07;5.70;;;10.30;99.90;;;;;;5161659;27;20845;-76
2024/02/19 11:01:46;;;;;;;8.13;5.10;;;10.30;99.90;;;;;;5161148;27;20865;-76
2024/02/19 11:04:23;;;;;;;10.10;5.17;;;10.30;99.90;;;;;;5161140;27;20481;-76
2024/02/19 11:06:54;;;;;;;13.20;5.40;;;10.30;99.90;;;;;;5180032;27;20456;-77
2024/02/19 11:09:25;;;;;;;10.43;5.30;;;10.40;99.90;;;;;;5180175;27;20413;-77
2024/02/19 11:11:59;;;;;;;10.57;5.90;;;10.40;99.90;;;;;;5161117;27;20990;-76
2024/02/19 11:14:30;;;;;;;13.10;5.53;;;10.40;99.90;;;;;;5160905;27;20527;-77
2024/02/19 11:17:00;;;;;;;9.33;5.40;;;10.50;99.90;;;;;;5179700;27;20509;-77
2024/02/19 11:19:37;;;;;;;9.60;5.30;;;10.50;99.90;;;;;;5160782;27;20945;-77
2024/02/19 11:22:08;;;;;;;9.70;5.67;;;10.60;99.90;;;;;;5161014;27;20432;-76
2024/02/19 11:24:36;;;;;;;13.63;5.83;;;10.60;99.90;;;;;;5160991;27;20439;-76
2024/02/19 11:27:08;;;;;;;10.03;5.50;;;10.60;99.90;;;;;;5178907;27;20467;-76
2024/02/19 11:29:38;;;;;;;10.70;5.13;;;10.70;99.90;;;;;;5160373;27;20448;-76
2024/02/19 11:32:18;;;;;;;10.33;5.40;;;10.70;99.90;;;;;;5179391;27;20876;-76
2024/02/19 11:34:50;;;;;;;12.83;5.53;;;10.70;99.90;;;;;;5160397;27;20489;-76
2024/02/19 11:37:21;;;;;;;12.27;5.00;;;10.80;99.90;;;;;;5160304;27;20460;-76
2024/02/19 11:39:49;;;;;;;9.83;5.83;;;10.80;99.90;;;;;;5178907;27;20431;-76
2024/02/19 11:42:18;;;;;;;9.27;5.77;;;10.80;99.90;;;;;;5178133;27;20968;-76
2024/02/19 11:44:48;;;;;;;8.60;5.83;;;10.80;99.90;;;;;;5160497;27;20456;-76
2024/02/19 11:47:16;;;;;;;10.40;5.93;;;10.90;99.90;;;;;;5160414;27;20898;-78
2024/02/19 11:49:47;;;;;;;14.37;7.30;;;10.90;99.90;;;;;;5161818;27;20556;-78
2024/02/19 11:52:17;;;;;;;17.90;6.60;;;10.90;99.90;;;;;;5179780;27;20444;-77
2024/02/19 11:54:53;;;;;;;13.73;6.43;;;10.90;99.90;;;;;;5179087;27;20808;-77
2024/02/19 11:57:23;;;;;;;12.60;5.70;;;11.00;99.90;;;;;;5179210;27;20466;-77
2024/02/19 11:59:56;;;;;;;12.30;5.70;;;11.00;99.90;;;;;;5179353;27;20409;-77
2024/02/19 12:02:24;;;;;;;9.47;5.80;;;11.00;99.90;;;;;;5160280;27;20843;-77
2024/02/19 12:04:53;;;;;;;11.60;8.20;;;11.00;99.90;;;;;;5179155;27;20428;-77
2024/02/19 12:07:23;;;;;;;15.47;9.80;;;11.00;99.90;;;;;;5161253;27;20491;-77
2024/02/19 12:09:51;;;;;;;14.67;10.93;;;11.00;99.90;;;;;;5160362;27;20449;-77
2024/02/19 12:12:21;;;;;;;20.20;14.50;;;11.00;99.90;;;;;;5160009;27;20465;-77
2024/02/19 12:14:50;;;;;;;18.73;16.10;;;10.90;99.90;;;;;;5179220;27;20512;-77
2024/02/19 12:17:18;;;;;;;16.43;13.20;;;10.90;99.90;;;;;;5160184;27;20457;-77
2024/02/19 12:19:46;;;;;;;15.10;11.60;;;10.90;99.90;;;;;;5160016;27;20468;-77
2024/02/19 12:22:15;;;;;;;13.60;8.70;;;10.90;99.90;;;;;;5159865;27;20436;-77
2024/02/19 12:24:45;;;;;;;13.70;7.93;;;10.90;99.90;;;;;;5159944;27;20493;-77
2024/02/19 12:27:13;;;;;;;15.80;8.70;;;10.90;99.90;;;;;;5159756;27;20480;-77
2024/02/19 12:29:42;;;;;;;15.30;7.77;;;10.90;99.90;;;;;;5159717;27;20428;-77
2024/02/19 12:32:10;;;;;;;12.00;7.40;;;10.90;99.90;;;;;;5159813;27;20464;-77
2024/02/19 12:34:39;;;;;;;12.43;6.20;;;10.90;99.90;;;;;;5159847;27;20455;-77
2024/02/19 12:37:07;;;;;;;10.73;7.33;;;10.90;99.90;;;;;;5178256;27;21025;-77
2024/02/19 12:39:35;;;;;;;13.40;7.17;;;10.90;99.90;;;;;;5159672;27;20476;-77
2024/02/19 12:42:07;;;;;;;9.63;6.50;;;10.90;99.90;;;;;;5178197;27;20436;-77
2024/02/19 12:44:38;;;;;;;11.70;8.13;;;10.90;99.90;;;;;;5178073;27;20500;-77
2024/02/19 12:47:06;;;;;;;9.00;6.30;;;10.90;99.90;;;;;;5159240;27;20502;-77
2024/02/19 12:49:35;;;;;;;10.47;7.03;;;10.90;99.90;;;;;;5178208;27;20439;-77
2024/02/19 12:52:08;;;;;;;12.50;7.43;;;10.80;99.90;;;;;;5159295;27;20499;-77
2024/02/19 12:54:36;;;;;;;11.97;7.50;;;10.80;99.90;;;;;;5157876;27;20433;-77
2024/02/19 12:57:08;;;;;;;10.73;7.50;;;10.80;99.90;;;;;;5159165;27;20486;-77
2024/02/19 12:59:36;;;;;;;12.50;8.70;;;10.80;99.90;;;;;;5159042;27;20428;-77